Time;durP1;ratioP1;P1;durP2;ratioP2;P2;SDS_P1;SDS_P2;PMS_P1;PMS_P2;Temp;Humidity;BMP_temperature;BMP_pressure;BME280_temperature;BME280_humidity;BME280_pressure;Samples;Min_cycle;Max_cycle;Signal;HPM_P1;HPM_P2
2023/07/27 00:01:19;;;;;;;;;;;;;;;26.00;64.83;96268.73;621644;228;64861;-64
2023/07/27 00:03:47;;;;;;;;;;;;;;;25.99;64.21;96264.48;621597;228;64610;-63
2023/07/27 00:06:14;;;;;;;;;;;;;;;25.99;64.31;96265.26;621527;228;66910;-63
2023/07/27 00:08:42;;;;;;;;;;;;;;;25.99;65.25;96262.56;621599;228;64671;-63
2023/07/27 00:11:09;;;;;;;;;;;;;;;25.99;65.31;96259.09;621580;227;62508;-63
2023/07/27 00:13:37;;;;;;;;;;;;;;;25.98;63.90;96249.45;622714;228;64550;-63
2023/07/27 00:16:05;;;;;;;;;;;;;;;25.98;64.93;96255.61;622756;228;64280;-62
2023/07/27 00:18:32;;;;;;;;;;;;;;;25.98;64.86;96263.69;622673;228;64705;-62
2023/07/27 00:21:00;;;;;;;;;;;;;;;25.97;64.59;96258.61;622661;228;64853;-62
2023/07/27 00:23:27;;;;;;;;;;;;;;;25.96;64.86;96255.14;622703;228;64745;-62
2023/07/27 00:25:56;;;;;;;;;;;;;;;25.96;63.78;96257.83;622666;228;63558;-61
2023/07/27 00:28:24;;;;;;;;;;;;;;;25.98;64.45;96254.83;622711;228;67207;-61
2023/07/27 00:30:53;;;;;;;;;;;;;;;25.97;65.18;96267.48;617443;228;69598;-61
2023/07/27 00:33:20;;;;;;;;;;;;;;;25.96;65.49;96268.59;622634;228;64777;-61
2023/07/27 00:35:57;;;;;;;;;;;;;;;25.97;65.28;96272.86;622683;228;67113;-61
2023/07/27 00:38:26;;;;;;;;;;;;;;;25.96;62.84;96267.81;622672;228;64940;-61
2023/07/27 00:40:54;;;;;;;;;;;;;;;25.96;64.78;96273.20;622682;228;65598;-61
2023/07/27 00:43:22;;;;;;;;;;;;;;;25.95;64.40;96272.41;622617;228;67046;-61
2023/07/27 00:45:50;;;;;;;;;;;;;;;25.96;64.73;96275.89;622638;228;66925;-61
2023/07/27 00:48:18;;;;;;;;;;;;;;;25.95;64.09;96282.40;622685;228;64749;-61
2023/07/27 00:50:46;;;;;;;;;;;;;;;25.94;63.98;96286.18;622673;228;66974;-61
2023/07/27 00:53:15;;;;;;;;;;;;;;;25.94;64.35;96288.87;622682;228;67425;-62
2023/07/27 00:55:43;;;;;;;;;;;;;;;25.95;64.42;96298.55;622638;228;65486;-62
2023/07/27 00:58:12;;;;;;;;;;;;;;;25.93;60.80;96296.16;622622;228;65226;-63
2023/07/27 01:00:42;;;;;;;;;;;;;;;25.94;63.13;96302.33;622675;228;64790;-63
2023/07/27 01:03:09;;;;;;;;;;;;;;;25.95;61.83;96287.78;622665;228;62658;-63
2023/07/27 01:05:37;;;;;;;;;;;;;;;25.93;61.23;96285.39;622710;228;64868;-63
2023/07/27 01:08:05;;;;;;;;;;;;;;;25.94;63.38;96300.42;622663;228;66903;-63
2023/07/27 01:10:40;;;;;;;;;;;;;;;25.93;63.07;96298.06;622652;228;64611;-63
2023/07/27 01:13:10;;;;;;;;;;;;;;;25.93;63.07;96303.45;621583;227;68085;-62
2023/07/27 01:15:39;;;;;;;;;;;;;;;25.91;62.19;96301.06;621487;228;64784;-64
2023/07/27 01:18:14;;;;;;;;;;;;;;;25.91;62.37;96304.55;621574;228;65466;-64
2023/07/27 01:20:46;;;;;;;;;;;;;;;25.89;61.27;96306.79;621529;228;67728;-64
2023/07/27 01:23:18;;;;;;;;;;;;;;;25.89;61.76;96309.48;619342;228;67353;-64
2023/07/27 01:26:05;;;;;;;;;;;;;;;25.89;61.90;96309.48;621128;228;62350;-62
2023/07/27 01:28:37;;;;;;;;;;;;;;;25.89;60.99;96316.74;621563;228;64936;-62
2023/07/27 01:31:09;;;;;;;;;;;;;;;25.87;60.70;96313.60;621583;228;67353;-62
2023/07/27 01:33:41;;;;;;;;;;;;;;;25.87;60.09;96317.08;621166;228;65112;-62
2023/07/27 01:36:10;;;;;;;;;;;;;;;25.85;61.83;96319.29;621631;228;67166;-63
2023/07/27 01:38:39;;;;;;;;;;;;;;;25.85;60.60;96319.29;621541;228;64455;-63
2023/07/27 01:41:09;;;;;;;;;;;;;;;25.85;61.24;96321.20;621560;228;63413;-64
2023/07/27 01:43:36;;;;;;;;;;;;;;;25.85;62.00;96321.98;621555;228;67266;-64
2023/07/27 01:46:05;;;;;;;;;;;;;;;25.85;62.07;96308.52;621514;228;67178;-64
2023/07/27 01:48:34;;;;;;;;;;;;;;;25.84;61.38;96320.41;621607;228;62564;-63
2023/07/27 01:51:02;;;;;;;;;;;;;;;25.85;59.99;96315.81;621611;228;67252;-64
2023/07/27 01:53:30;;;;;;;;;;;;;;;25.84;59.71;96319.63;621588;228;66828;-64
2023/07/27 01:55:59;;;;;;;;;;;;;;;25.83;61.36;96326.06;621554;228;64528;-63
2023/07/27 01:58:27;;;;;;;;;;;;;;;25.82;59.11;96329.88;621563;228;65159;-63
2023/07/27 02:00:56;;;;;;;;;;;;;;;25.83;61.08;96326.06;621544;228;67138;-63
2023/07/27 02:03:23;;;;;;;;;;;;;;;25.82;60.44;96325.28;621609;228;64720;-64
2023/07/27 02:05:51;;;;;;;;;;;;;;;25.82;60.47;96340.65;621574;228;64575;-64
2023/07/27 02:08:18;;;;;;;;;;;;;;;25.82;59.64;96338.74;621561;228;67243;-64
2023/07/27 02:10:47;;;;;;;;;;;;;;;25.83;60.28;96342.22;621517;228;64782;-63
2023/07/27 02:13:19;;;;;;;;;;;;;;;25.81;59.57;96337.17;621356;227;67382;-63
2023/07/27 02:15:51;;;;;;;;;;;;;;;25.82;60.75;96346.81;621264;228;64679;-64
2023/07/27 02:18:20;;;;;;;;;;;;;;;25.83;57.50;96342.22;621467;228;64770;-64
2023/07/27 02:20:49;;;;;;;;;;;;;;;25.82;60.06;96357.58;621552;228;64997;-63
2023/07/27 02:23:18;;;;;;;;;;;;;;;25.81;61.03;96364.09;614763;228;67795;-64
2023/07/27 02:25:46;;;;;;;;;;;;;;;25.81;60.42;96357.89;621502;228;65439;-63
2023/07/27 02:28:13;;;;;;;;;;;;;;;25.80;59.73;96357.10;621599;228;64809;-63
2023/07/27 02:30:41;;;;;;;;;;;;;;;25.80;59.22;96359.01;621617;228;66912;-63
2023/07/27 02:33:08;;;;;;;;;;;;;;;25.80;59.36;96365.17;621556;228;64896;-62
2023/07/27 02:35:36;;;;;;;;;;;;;;;25.79;59.62;96362.82;621531;228;68009;-62
2023/07/27 02:38:03;;;;;;;;;;;;;;;25.80;60.29;96377.84;621543;228;66850;-62
2023/07/27 02:40:31;;;;;;;;;;;;;;;25.79;59.26;96360.13;621557;228;62210;-62
2023/07/27 02:42:58;;;;;;;;;;;;;;;25.77;58.61;96379.27;621616;228;64860;-62
2023/07/27 02:45:26;;;;;;;;;;;;;;;25.78;59.90;96383.56;621550;228;67230;-62
2023/07/27 02:47:54;;;;;;;;;;;;;;;25.77;59.48;96378.48;621552;228;65230;-62
2023/07/27 02:50:21;;;;;;;;;;;;;;;25.78;59.59;96388.13;621539;228;67635;-63
2023/07/27 02:52:50;;;;;;;;;;;;;;;25.76;59.08;96391.16;621307;228;43751;-63
2023/07/27 02:55:18;;;;;;;;;;;;;;;25.77;58.97;96390.04;621594;228;63379;-63
2023/07/27 02:57:46;;;;;;;;;;;;;;;25.75;58.85;96392.25;614816;228;64407;-63
2023/07/27 03:00:13;;;;;;;;;;;;;;;25.76;58.82;96393.84;614815;228;68443;-63
2023/07/27 03:02:41;;;;;;;;;;;;;;;25.76;59.20;96398.45;621580;228;63425;-64
2023/07/27 03:05:09;;;;;;;;;;;;;;;25.76;59.64;96401.92;621617;228;64900;-63
2023/07/27 03:07:36;;;;;;;;;;;;;;;25.77;58.89;96405.40;621609;228;67028;-64
2023/07/27 03:10:04;;;;;;;;;;;;;;;25.75;60.10;96411.09;621626;228;62492;-63
2023/07/27 03:12:31;;;;;;;;;;;;;;;25.75;60.11;96402.23;622242;227;67133;-63
2023/07/27 03:14:59;;;;;;;;;;;;;;;25.74;60.30;96414.90;622741;228;64527;-63
2023/07/27 03:17:27;;;;;;;;;;;;;;;25.75;60.14;96413.78;622745;228;64843;-64
2023/07/27 03:19:54;;;;;;;;;;;;;;;25.74;58.60;96414.11;622676;228;66887;-64
2023/07/27 03:22:22;;;;;;;;;;;;;;;25.73;58.96;96402.56;622717;228;67252;-64
2023/07/27 03:24:49;;;;;;;;;;;;;;;25.73;58.43;96405.25;622696;228;64702;-63
2023/07/27 03:27:17;;;;;;;;;;;;;;;25.73;57.66;96416.02;622703;228;65910;-63
2023/07/27 03:29:44;;;;;;;;;;;;;;;25.73;59.28;96424.09;622733;228;67052;-63
2023/07/27 03:32:12;;;;;;;;;;;;;;;25.72;58.51;96414.41;622732;228;62583;-63
2023/07/27 03:34:39;;;;;;;;;;;;;;;25.73;58.92;96415.20;622701;228;65607;-64
2023/07/27 03:37:07;;;;;;;;;;;;;;;25.72;58.60;96421.70;622733;228;67016;-63
2023/07/27 03:39:35;;;;;;;;;;;;;;;25.71;57.98;96420.91;622723;228;62709;-64
2023/07/27 03:42:03;;;;;;;;;;;;;;;25.71;57.82;96415.53;622723;228;67124;-63
2023/07/27 03:44:31;;;;;;;;;;;;;;;25.70;56.27;96416.66;622720;228;66991;-64
2023/07/27 03:46:59;;;;;;;;;;;;;;;25.71;57.73;96420.13;622680;228;63483;-63
2023/07/27 03:49:28;;;;;;;;;;;;;;;25.71;58.42;96418.22;622762;228;43873;-64
2023/07/27 03:51:56;;;;;;;;;;;;;;;25.69;58.25;96415.05;622689;228;66976;-64
2023/07/27 03:54:24;;;;;;;;;;;;;;;25.69;58.99;96415.05;622719;228;65598;-64
2023/07/27 03:56:51;;;;;;;;;;;;;;;25.69;57.84;96409.66;622704;228;67180;-64
2023/07/27 03:59:19;;;;;;;;;;;;;;;25.68;59.10;96411.57;622705;228;64481;-64
2023/07/27 04:01:46;;;;;;;;;;;;;;;25.68;58.73;96413.48;622691;228;65494;-64
2023/07/27 04:04:14;;;;;;;;;;;;;;;25.68;58.77;96418.86;622730;228;67032;-64
2023/07/27 04:06:41;;;;;;;;;;;;;;;25.68;57.33;96419.64;622764;228;66626;-64
2023/07/27 04:09:09;;;;;;;;;;;;;;;25.68;58.33;96418.86;622741;228;63497;-63
2023/07/27 04:11:36;;;;;;;;;;;;;;;25.68;57.84;96421.55;622445;227;66862;-64
2023/07/27 04:14:04;;;;;;;;;;;;;;;25.68;57.24;96424.23;621618;228;64704;-64
2023/07/27 04:16:32;;;;;;;;;;;;;;;25.69;57.82;96420.43;621656;228;64826;-64
2023/07/27 04:18:59;;;;;;;;;;;;;;;25.69;57.85;96420.43;621648;228;64489;-64
2023/07/27 04:21:27;;;;;;;;;;;;;;;25.68;58.98;96419.64;621638;228;66806;-63
2023/07/27 04:23:55;;;;;;;;;;;;;;;25.68;58.13;96426.94;621661;228;64762;-64
2023/07/27 04:26:22;;;;;;;;;;;;;;;25.67;57.55;96428.84;621621;228;66906;-64
2023/07/27 04:28:50;;;;;;;;;;;;;;;25.67;58.12;96423.45;621611;228;67753;-64
2023/07/27 04:31:17;;;;;;;;;;;;;;;25.67;58.88;96422.64;621647;228;62463;-64
2023/07/27 04:33:45;;;;;;;;;;;;;;;25.68;59.65;96426.94;621636;228;66760;-64
2023/07/27 04:36:12;;;;;;;;;;;;;;;25.66;57.90;96423.75;621622;228;67730;-64
2023/07/27 04:38:39;;;;;;;;;;;;;;;25.66;59.35;96431.83;621584;228;62368;-64
2023/07/27 04:41:07;;;;;;;;;;;;;;;25.65;56.79;96435.64;621588;228;65340;-64
2023/07/27 04:43:34;;;;;;;;;;;;;;;25.67;57.87;96430.71;621605;228;67320;-64
2023/07/27 04:46:02;;;;;;;;;;;;;;;25.65;57.75;96447.19;621628;228;65585;-63
2023/07/27 04:48:29;;;;;;;;;;;;;;;25.66;58.90;96447.97;621621;228;67094;-64
2023/07/27 04:50:57;;;;;;;;;;;;;;;25.64;59.58;96445.59;621621;228;67228;-64
2023/07/27 04:53:24;;;;;;;;;;;;;;;25.64;57.76;96444.80;621608;228;64742;-63
2023/07/27 04:55:52;;;;;;;;;;;;;;;25.64;57.88;96445.59;621620;228;67094;-63
2023/07/27 04:58:19;;;;;;;;;;;;;;;25.65;58.70;96441.02;621541;228;67979;-64
2023/07/27 05:00:48;;;;;;;;;;;;;;;25.64;58.21;96444.80;621615;228;64525;-64
2023/07/27 05:03:16;;;;;;;;;;;;;;;25.64;58.59;96453.66;621436;228;64988;-64
2023/07/27 05:05:43;;;;;;;;;;;;;;;25.63;57.74;96445.92;621616;228;67069;-64
2023/07/27 05:08:11;;;;;;;;;;;;;;;25.64;57.32;96455.56;621603;228;64678;-64
2023/07/27 05:10:41;;;;;;;;;;;;;;;25.64;57.82;96452.88;621603;228;67221;-64
2023/07/27 05:13:09;;;;;;;;;;;;;;;25.63;58.04;96451.30;621588;227;66977;-64
2023/07/27 05:15:38;;;;;;;;;;;;;;;25.63;56.97;96448.61;621617;228;64776;-64
2023/07/27 05:18:05;;;;;;;;;;;;;;;25.63;58.53;96462.06;621606;228;64880;-64
2023/07/27 05:20:33;;;;;;;;;;;;;;;25.62;59.18;96463.97;621640;228;66795;-64
2023/07/27 05:23:01;;;;;;;;;;;;;;;25.61;57.28;96472.34;621553;228;62799;-64
2023/07/27 05:25:28;;;;;;;;;;;;;;;25.62;56.81;96473.94;621505;228;64853;-64
2023/07/27 05:27:56;;;;;;;;;;;;;;;25.62;57.97;96469.34;621590;228;65246;-64
2023/07/27 05:30:23;;;;;;;;;;;;;;;25.61;58.69;96466.95;621610;228;62529;-64
2023/07/27 05:32:51;;;;;;;;;;;;;;;25.61;56.36;96469.65;621624;228;64996;-64
2023/07/27 05:35:18;;;;;;;;;;;;;;;25.61;58.42;96467.75;621598;228;64849;-64
2023/07/27 05:37:46;;;;;;;;;;;;;;;25.61;58.47;96466.95;621586;228;62792;-64
2023/07/27 05:40:17;;;;;;;;;;;;;;;25.60;56.90;96470.77;621629;228;67218;-64
2023/07/27 05:42:44;;;;;;;;;;;;;;;25.60;57.36;96470.77;621619;228;64990;-62
2023/07/27 05:45:12;;;;;;;;;;;;;;;25.60;56.72;96460.00;621626;228;62757;-62
2023/07/27 05:47:39;;;;;;;;;;;;;;;25.59;55.68;96463.78;621601;228;64708;-62
2023/07/27 05:50:07;;;;;;;;;;;;;;;25.60;57.90;96473.45;621613;228;64919;-62
2023/07/27 05:52:35;;;;;;;;;;;;;;;25.59;55.98;96469.98;621574;228;64800;-62
2023/07/27 05:55:02;;;;;;;;;;;;;;;25.60;57.02;96470.77;621634;228;67381;-62
2023/07/27 05:57:30;;;;;;;;;;;;;;;25.60;56.25;96473.45;621598;228;67023;-62
2023/07/27 05:59:57;;;;;;;;;;;;;;;25.59;58.60;96464.59;621595;228;64746;-61
2023/07/27 06:02:25;;;;;;;;;;;;;;;25.58;57.08;96462.20;621498;228;67937;-61
2023/07/27 06:04:52;;;;;;;;;;;;;;;25.56;54.94;96450.96;620934;228;67098;-62
2023/07/27 06:07:19;;;;;;;;;;;;;;;25.56;54.69;96449.05;621556;228;62671;-66
2023/07/27 06:09:47;;;;;;;;;;;;;;;25.56;54.52;96446.36;621631;228;67228;-73
2023/07/27 06:12:15;;;;;;;;;;;;;;;25.54;52.77;96442.44;621708;227;67064;-72
2023/07/27 06:14:44;;;;;;;;;;;;;;;25.51;49.91;96440.34;622297;228;64826;-73
2023/07/27 06:17:11;;;;;;;;;;;;;;;25.50;52.17;96433.39;622452;228;67287;-74
2023/07/27 06:19:39;;;;;;;;;;;;;;;25.48;49.98;96439.07;622428;228;64987;-75
2023/07/27 06:22:06;;;;;;;;;;;;;;;25.47;50.06;96430.22;622474;228;63516;-73
2023/07/27 06:24:34;;;;;;;;;;;;;;;25.46;50.58;96431.33;622445;228;66921;-73
2023/07/27 06:27:01;;;;;;;;;;;;;;;25.47;51.92;96430.22;622428;228;67169;-75
2023/07/27 06:29:29;;;;;;;;;;;;;;;25.45;47.54;96427.07;622450;228;64670;-72
2023/07/27 06:31:56;;;;;;;;;;;;;;;25.46;48.35;96433.23;622456;228;64906;-65
2023/07/27 06:34:25;;;;;;;;;;;;;;;25.45;46.57;96426.25;622467;228;67111;-64
2023/07/27 06:36:52;;;;;;;;;;;;;;;25.45;47.70;96434.33;622430;228;64794;-64
2023/07/27 06:39:20;;;;;;;;;;;;;;;25.45;48.15;96437.83;622480;228;65084;-63
2023/07/27 06:41:47;;;;;;;;;;;;;;;25.45;47.72;96448.59;622268;228;67342;-63
2023/07/27 06:44:15;;;;;;;;;;;;;;;25.45;46.04;96447.77;622363;228;64561;-63
2023/07/27 06:46:42;;;;;;;;;;;;;;;25.44;47.21;96451.58;622096;228;67226;-63
2023/07/27 06:49:10;;;;;;;;;;;;;;;25.45;50.77;96450.46;622090;228;66985;-63
2023/07/27 06:51:38;;;;;;;;;;;;;;;25.44;47.92;96446.20;622124;228;62464;-63
2023/07/27 06:54:06;;;;;;;;;;;;;;;25.43;48.52;96444.63;622111;228;67409;-64
2023/07/27 06:56:34;;;;;;;;;;;;;;;25.43;51.16;96442.72;622105;228;67051;-63
2023/07/27 06:59:02;;;;;;;;;;;;;;;25.43;49.44;96450.00;622161;228;64795;-63
2023/07/27 07:01:29;;;;;;;;;;;;;;;25.42;46.62;96448.41;622102;228;66934;-66
2023/07/27 07:03:57;;;;;;;;;;;;;;;25.42;49.27;96451.09;622065;228;66851;-63
2023/07/27 07:06:24;;;;;;;;;;;;;;;25.42;49.36;96448.41;622115;228;64708;-67
2023/07/27 07:08:52;;;;;;;;;;;;;;;25.42;50.89;96451.88;622062;228;67520;-68
2023/07/27 07:11:19;;;;;;;;;;;;;;;25.43;50.27;96453.48;622001;227;65827;-67
2023/07/27 07:13:47;;;;;;;;;;;;;;;25.43;50.52;96450.80;620847;228;64635;-68
2023/07/27 07:16:15;;;;;;;;;;;;;;;25.44;51.64;96457.75;620773;228;67064;-67
2023/07/27 07:18:42;;;;;;;;;;;;;;;25.44;50.96;96452.37;620837;228;64835;-67
2023/07/27 07:21:10;;;;;;;;;;;;;;;25.44;51.16;96465.81;620841;228;64563;-67
2023/07/27 07:23:38;;;;;;;;;;;;;;;25.44;52.36;96457.75;620792;228;67024;-67
2023/07/27 07:26:05;;;;;;;;;;;;;;;25.44;52.59;96452.37;620847;228;66843;-67
2023/07/27 07:28:32;;;;;;;;;;;;;;;25.44;52.61;96457.75;620818;228;64330;-67
2023/07/27 07:31:00;;;;;;;;;;;;;;;25.43;52.66;96455.39;620739;228;64845;-70
2023/07/27 07:33:28;;;;;;;;;;;;;;;25.44;53.32;96451.58;620842;228;67002;-70
2023/07/27 07:35:55;;;;;;;;;;;;;;;25.43;53.10;96431.17;620906;228;64730;-72
2023/07/27 07:38:22;;;;;;;;;;;;;;;25.43;53.05;96441.94;620750;228;65002;-72
2023/07/27 07:40:50;;;;;;;;;;;;;;;25.43;53.06;96448.10;620772;228;64842;-72
2023/07/27 07:43:17;;;;;;;;;;;;;;;25.45;53.94;96461.22;620857;227;63489;-71
2023/07/27 07:45:45;;;;;;;;;;;;;;;25.47;54.25;96486.70;620756;228;67013;-71
2023/07/27 07:48:12;;;;;;;;;;;;;;;25.45;55.01;96466.61;620860;228;66724;-71
2023/07/27 07:50:40;;;;;;;;;;;;;;;25.46;55.18;96470.90;620694;228;64818;-71
2023/07/27 07:53:08;;;;;;;;;;;;;;;25.47;55.04;96472.47;620865;228;65030;-72
2023/07/27 07:55:36;;;;;;;;;;;;;;;25.46;52.43;96463.61;620848;228;65366;-72
2023/07/27 07:58:03;;;;;;;;;;;;;;;25.48;56.22;96465.97;620829;228;64699;-71
2023/07/27 08:00:31;;;;;;;;;;;;;;;25.48;56.05;96463.28;620885;228;67212;-71
2023/07/27 08:02:59;;;;;;;;;;;;;;;25.47;54.77;96475.16;620893;228;67195;-64
2023/07/27 08:05:26;;;;;;;;;;;;;;;25.45;49.90;96459.35;620749;228;64694;-69
2023/07/27 08:07:54;;;;;;;;;;;;;;;25.46;51.25;96470.90;620883;228;67312;-70
2023/07/27 08:10:21;;;;;;;;;;;;;;;25.45;52.76;96470.11;620907;228;66814;-71
2023/07/27 08:12:49;;;;;;;;;;;;;;;25.46;51.62;96482.45;622461;227;64727;-69
2023/07/27 08:15:17;;;;;;;;;;;;;;;25.46;53.21;96481.66;623324;227;64616;-68
2023/07/27 08:17:45;;;;;;;;;;;;;;;25.46;52.83;96471.69;623233;227;67016;-71
2023/07/27 08:20:12;;;;;;;;;;;;;;;25.46;53.65;96469.00;623200;227;62677;-73
2023/07/27 08:22:40;;;;;;;;;;;;;;;25.46;54.31;96474.38;623249;227;67165;-72
2023/07/27 08:25:07;;;;;;;;;;;;;;;25.46;54.05;96463.61;623247;227;66590;-71
2023/07/27 08:27:35;;;;;;;;;;;;;;;25.47;55.09;96461.71;623243;227;62315;-72
2023/07/27 08:30:03;;;;;;;;;;;;;;;25.47;54.95;96462.50;623302;227;64529;-70
2023/07/27 08:32:30;;;;;;;;;;;;;;;25.47;54.81;96464.40;623249;227;64787;-73
2023/07/27 08:34:58;;;;;;;;;;;;;;;25.47;55.02;96465.19;623162;227;62499;-72
2023/07/27 08:37:25;;;;;;;;;;;;;;;25.49;55.44;96464.10;623297;227;64909;-72
2023/07/27 08:39:52;;;;;;;;;;;;;;;25.49;55.43;96456.03;623280;227;66697;-72
2023/07/27 08:42:20;;;;;;;;;;;;;;;25.50;55.79;96462.98;623200;227;62380;-74
2023/07/27 08:44:48;;;;;;;;;;;;;;;25.50;55.85;96462.98;623124;227;67140;-74
2023/07/27 08:47:15;;;;;;;;;;;;;;;25.50;56.14;96471.05;623252;227;65624;-71
2023/07/27 08:49:44;;;;;;;;;;;;;;;25.50;56.24;96471.84;623148;227;62451;-68
2023/07/27 08:52:13;;;;;;;;;;;;;;;25.52;56.32;96484.99;623247;227;67185;-64
2023/07/27 08:54:41;;;;;;;;;;;;;;;25.52;56.14;96493.06;623042;227;67095;-63
2023/07/27 08:57:08;;;;;;;;;;;;;;;25.51;56.55;96503.04;623149;227;64741;-72
2023/07/27 08:59:36;;;;;;;;;;;;;;;25.51;56.76;96507.60;623240;227;67021;-71
2023/07/27 09:02:04;;;;;;;;;;;;;;;25.51;57.46;96504.91;623211;227;66617;-71
2023/07/27 09:04:31;;;;;;;;;;;;;;;25.51;56.86;96503.04;623220;227;64560;-71
2023/07/27 09:07:00;;;;;;;;;;;;;;;25.50;56.76;96506.03;623254;227;67046;-77
2023/07/27 09:09:28;;;;;;;;;;;;;;;25.51;56.45;96515.67;623032;227;67258;-74
2023/07/27 09:11:56;;;;;;;;;;;;;;;25.50;56.59;96512.20;623624;227;64534;-73
2023/07/27 09:14:23;;;;;;;;;;;;;;;25.49;57.16;96513.31;624682;227;66782;-74
2023/07/27 09:16:51;;;;;;;;;;;;;;;25.49;57.21;96507.14;624595;227;64617;-76
2023/07/27 09:19:19;;;;;;;;;;;;;;;25.51;56.97;96510.30;624741;227;64790;-72
2023/07/27 09:21:52;;;;;;;;;;;;;;;25.50;56.83;96514.89;624709;227;67059;-72
2023/07/27 09:24:21;;;;;;;;;;;;;;;25.49;56.93;96524.07;624621;227;66779;-72
2023/07/27 09:26:49;;;;;;;;;;;;;;;25.50;56.59;96530.23;624679;227;62447;-77
2023/07/27 09:29:18;;;;;;;;;;;;;;;25.50;56.76;96522.17;624733;227;64177;-74
2023/07/27 09:31:49;;;;;;;;;;;;;;;25.51;57.07;96529.12;624700;227;66875;-74
2023/07/27 09:34:18;;;;;;;;;;;;;;;25.50;56.83;96520.27;624692;227;64530;-75
2023/07/27 09:36:46;;;;;;;;;;;;;;;25.50;56.82;96524.86;624707;227;64849;-73
2023/07/27 09:39:19;;;;;;;;;;;;;;;25.50;57.05;96532.93;624625;227;66839;-75
2023/07/27 09:41:44;;;;;;;;;;;;;;;25.50;56.89;96525.65;624406;227;64668;-72
2023/07/27 09:44:15;;;;;;;;;;;;;;;25.49;56.73;96529.45;624696;227;67683;-75
2023/07/27 09:46:44;;;;;;;;;;;;;;;25.49;56.99;96536.73;624649;227;66503;-77
2023/07/27 09:49:13;;;;;;;;;;;;;;;25.48;57.47;96538.61;617321;227;66404;-77
2023/07/27 09:51:40;;;;;;;;;;;;;;;25.49;57.40;96540.22;620920;227;66907;-77
2023/07/27 09:54:08;;;;;;;;;;;;;;;25.49;56.93;96539.43;619654;227;67699;-77
2023/07/27 09:56:36;;;;;;;;;;;;;;;25.49;56.94;96540.22;619413;227;62435;-76
2023/07/27 09:59:03;;;;;;;;;;;;;;;25.47;57.01;96529.75;619399;229;63379;-77
2023/07/27 10:01:31;;;;;;;;;;;;;;;25.50;56.83;96538.31;619434;229;64369;-76
2023/07/27 10:03:58;;;;;;;;;;;;;;;25.49;57.34;96532.14;619396;229;64601;-76
2023/07/27 10:06:27;;;;;;;;;;;;;;;25.48;56.68;96538.61;619379;229;66844;-76
2023/07/27 10:08:55;;;;;;;;;;;;;;;25.49;56.99;96545.59;619418;229;66671;-77
2023/07/27 10:11:30;;;;;;;;;;;;;;;25.49;56.71;96534.05;618684;229;64632;-75
2023/07/27 10:13:59;;;;;;;;;;;;;;;25.50;56.72;96530.23;612386;231;66813;-73
2023/07/27 10:16:29;;;;;;;;;;;;;;;25.51;57.33;96527.25;611681;231;64047;-76
2023/07/27 10:18:56;;;;;;;;;;;;;;;25.51;57.68;96545.27;612311;231;64636;-78
2023/07/27 10:21:30;;;;;;;;;;;;;;;25.52;58.00;96544.18;612301;231;66668;-76
2023/07/27 10:24:02;;;;;;;;;;;;;;;25.54;52.59;96536.59;612328;231;66958;-77
2023/07/27 10:26:31;;;;;;;;;;;;;;;25.55;55.38;96533.58;612364;231;64630;-70
2023/07/27 10:29:00;;;;;;;;;;;;;;;25.56;49.90;96529.77;611497;231;64315;-69
2023/07/27 10:31:27;;;;;;;;;;;;;;;25.56;55.65;96531.67;611867;231;64772;-76
2023/07/27 10:33:57;;;;;;;;;;;;;;;25.56;58.00;96537.84;612337;231;64514;-77
2023/07/27 10:36:26;;;;;;;;;;;;;;;25.55;58.94;96543.55;612290;231;64619;-78
2023/07/27 10:38:54;;;;;;;;;;;;;;;25.53;57.85;96554.61;611582;231;64554;-75
2023/07/27 10:41:23;;;;;;;;;;;;;;;25.51;57.79;96542.58;612368;231;62522;-78
2023/07/27 10:44:10;;;;;;;;;;;;;;;25.49;57.94;96542.91;612277;231;64036;-77
2023/07/27 10:46:39;;;;;;;;;;;;;;;25.49;57.11;96542.12;612317;231;64281;-76
2023/07/27 10:49:12;;;;;;;;;;;;;;;25.49;57.48;96517.91;612280;231;64572;-77
2023/07/27 10:51:41;;;;;;;;;;;;;;;25.48;57.99;96519.78;612285;231;64870;-72
2023/07/27 10:54:10;;;;;;;;;;;;;;;25.48;57.86;96519.78;612277;231;66802;-78
2023/07/27 10:56:38;;;;;;;;;;;;;;;25.49;57.82;96525.97;612135;231;64657;-78
2023/07/27 10:59:06;;;;;;;;;;;;;;;25.47;57.65;96510.92;612305;231;64607;-66
2023/07/27 11:01:34;;;;;;;;;;;;;;;25.48;50.48;96503.64;612364;231;64323;-79
2023/07/27 11:04:03;;;;;;;;;;;;;;;25.50;53.38;96527.55;612259;231;62070;-79
2023/07/27 11:06:31;;;;;;;;;;;;;;;25.51;55.10;96531.81;612303;231;66911;-81
2023/07/27 11:08:58;;;;;;;;;;;;;;;25.51;56.40;96539.89;612373;231;66666;-82
2023/07/27 11:11:27;;;;;;;;;;;;;;;25.51;57.39;96539.89;612968;229;62448;-81
2023/07/27 11:13:56;;;;;;;;;;;;;;;25.51;57.17;96529.12;617354;230;67780;-81
2023/07/27 11:16:23;;;;;;;;;;;;;;;25.50;57.36;96533.72;617097;230;66688;-81
2023/07/27 11:18:51;;;;;;;;;;;;;;;25.50;57.83;96535.63;617328;230;64576;-81
2023/07/27 11:21:18;;;;;;;;;;;;;;;25.50;58.10;96524.86;617412;230;66904;-81
2023/07/27 11:23:47;;;;;;;;;;;;;;;25.49;57.62;96545.59;617376;230;66548;-83
2023/07/27 11:26:15;;;;;;;;;;;;;;;25.50;57.25;96532.93;617328;230;64778;-82
2023/07/27 11:28:43;;;;;;;;;;;;;;;25.50;57.63;96535.63;617485;230;66762;-83
2023/07/27 11:31:10;;;;;;;;;;;;;;;25.49;57.58;96524.07;617463;230;63922;-80
2023/07/27 11:33:38;;;;;;;;;;;;;;;25.50;57.32;96525.65;617356;230;62614;-71
2023/07/27 11:36:07;;;;;;;;;;;;;;;25.51;57.22;96526.44;617503;230;64320;-70
2023/07/27 11:38:34;;;;;;;;;;;;;;;25.50;57.14;96519.48;617406;230;66858;-71
2023/07/27 11:41:02;;;;;;;;;;;;;;;25.51;56.89;96515.67;617452;227;65844;-71
2023/07/27 11:43:29;;;;;;;;;;;;;;;25.50;57.14;96525.65;622538;228;66785;-72
2023/07/27 11:45:57;;;;;;;;;;;;;;;25.50;57.24;96531.03;622532;228;66820;-70
2023/07/27 11:48:26;;;;;;;;;;;;;;;25.50;57.03;96533.72;622587;228;63236;-72
2023/07/27 11:50:56;;;;;;;;;;;;;;;25.50;57.24;96532.93;622603;228;66726;-71
2023/07/27 11:53:24;;;;;;;;;;;;;;;25.50;57.17;96531.03;622583;228;64194;-71
2023/07/27 11:55:52;;;;;;;;;;;;;;;25.50;57.20;96535.63;622590;228;64585;-71
2023/07/27 11:58:20;;;;;;;;;;;;;;;25.49;56.85;96523.28;622612;228;66488;-71
2023/07/27 12:00:51;;;;;;;;;;;;;;;25.50;57.31;96532.93;622507;228;66609;-70
2023/07/27 12:03:22;;;;;;;;;;;;;;;25.49;57.39;96534.83;622589;228;64602;-71
2023/07/27 12:05:51;;;;;;;;;;;;;;;25.49;57.36;96516.00;622581;228;67061;-70
2023/07/27 12:08:19;;;;;;;;;;;;;;;25.49;57.34;96528.67;622554;228;64088;-70
2023/07/27 12:10:57;;;;;;;;;;;;;;;25.49;57.26;96516.00;622423;228;62469;-70
2023/07/27 12:13:25;;;;;;;;;;;;;;;25.49;56.85;96520.59;621457;227;64552;-70
2023/07/27 12:15:57;;;;;;;;;;;;;;;25.48;57.60;96506.33;621516;228;64575;-70
2023/07/27 12:18:28;;;;;;;;;;;;;;;25.49;57.26;96515.22;621555;228;64585;-69
2023/07/27 12:20:56;;;;;;;;;;;;;;;25.47;57.01;96508.23;621519;228;64443;-70
2023/07/27 12:23:25;;;;;;;;;;;;;;;25.47;57.09;96502.84;621430;228;64116;-72
2023/07/27 12:25:53;;;;;;;;;;;;;;;25.49;57.06;96512.52;621485;228;64704;-71
2023/07/27 12:28:21;;;;;;;;;;;;;;;25.47;56.87;96526.27;621484;228;66874;-72
2023/07/27 12:30:49;;;;;;;;;;;;;;;25.47;56.96;96504.75;621460;228;66197;-72
2023/07/27 12:33:16;;;;;;;;;;;;;;;25.47;56.54;96516.30;621511;228;64650;-72
2023/07/27 12:35:44;;;;;;;;;;;;;;;25.47;57.37;96512.83;621518;228;66471;-72
2023/07/27 12:38:11;;;;;;;;;;;;;;;25.47;57.16;96518.20;621390;228;66174;-71
2023/07/27 12:40:39;;;;;;;;;;;;;;;25.46;57.10;96528.17;621458;226;62715;-71
2023/07/27 12:43:06;;;;;;;;;;;;;;;25.47;56.85;96510.92;621361;228;66539;-72
2023/07/27 12:45:34;;;;;;;;;;;;;;;25.46;56.69;96512.03;621497;228;66337;-72
2023/07/27 12:48:01;;;;;;;;;;;;;;;25.46;56.84;96517.41;625253;226;62467;-72
2023/07/27 12:50:29;;;;;;;;;;;;;;;25.46;56.78;96501.28;625692;226;66579;-71
2023/07/27 12:52:56;;;;;;;;;;;;;;;25.46;56.48;96514.73;625665;226;64880;-70